createdAt,value
2023-02-13T00:00:45.380Z,102270.94
2023-02-13T00:03:12.587Z,102264.06
2023-02-13T00:05:39.708Z,102257.19
2023-02-13T00:08:06.772Z,102256.34
2023-02-13T00:10:33.817Z,102251.25
2023-02-13T00:13:00.980Z,102243.56
2023-02-13T00:15:28.278Z,102252.06
2023-02-13T00:17:55.501Z,102246.94
2023-02-13T00:20:22.678Z,102238.31
2023-02-13T00:22:49.908Z,102234.78
2023-02-13T00:25:17.097Z,102244.31
2023-02-13T00:27:44.342Z,102245.16
2023-02-13T00:30:12.081Z,102239.25
2023-02-13T00:32:39.204Z,102234.13
2023-02-13T00:35:06.694Z,102228.19
2023-02-13T00:37:34.411Z,102229.78
2023-02-13T00:40:01.705Z,102216.06
2023-02-13T00:42:28.852Z,102219.53
2023-02-13T00:44:56.159Z,102216.94
2023-02-13T00:47:23.640Z,102223.06
2023-02-13T00:49:50.856Z,102219.53
2023-02-13T00:52:18.054Z,102222.91
2023-02-13T00:54:46.979Z,102211.72
2023-02-13T00:57:14.203Z,102222.19
2023-02-13T00:59:42.859Z,102219.53
2023-02-13T01:02:10.137Z,102219.41
2023-02-13T01:04:37.370Z,102227.22
2023-02-13T01:07:04.454Z,102226.44
2023-02-13T01:09:31.692Z,102220.38
2023-02-13T01:11:58.780Z,102224.03
2023-02-13T01:14:26.160Z,102226.59
2023-02-13T01:16:53.274Z,102224.03
2023-02-13T01:19:20.480Z,102217.19
2023-02-13T01:21:47.685Z,102229.19
2023-02-13T01:24:14.905Z,102216.47
2023-02-13T01:26:42.044Z,102218.06
2023-02-13T01:29:12.509Z,102211.34
2023-02-13T01:31:40.321Z,102217.47
2023-02-13T01:34:07.618Z,102211.47
2023-02-13T01:36:34.863Z,102217.56
2023-02-13T01:39:02.028Z,102212.47
2023-02-13T01:41:30.911Z,102210.00
2023-02-13T01:44:00.732Z,102204.75
2023-02-13T01:46:39.052Z,102203.13
2023-02-13T01:49:23.231Z,102201.50
2023-02-13T01:51:54.511Z,102206.75
2023-02-13T01:54:31.450Z,102205.88
2023-02-13T01:57:08.454Z,102173.41
2023-02-13T01:59:43.242Z,102205.97
2023-02-13T02:02:11.340Z,102193.75
2023-02-13T02:04:41.099Z,102196.66
2023-02-13T02:07:21.813Z,102191.53
2023-02-13T02:09:52.598Z,102187.13
2023-02-13T02:12:55.201Z,102186.25
2023-02-13T02:15:22.658Z,102193.28
2023-02-13T02:17:49.858Z,102188.88
2023-02-13T02:20:26.623Z,102196.66
2023-02-13T02:23:31.219Z,102196.78
2023-02-13T02:26:10.443Z,102198.50
2023-02-13T02:29:07.285Z,102195.91
2023-02-13T02:32:12.902Z,102196.66
2023-02-13T02:34:43.275Z,102193.28
2023-02-13T02:37:44.097Z,102169.50
2023-02-13T02:40:32.609Z,102191.53
2023-02-13T02:43:24.660Z,102196.66
2023-02-13T02:46:16.127Z,102165.81
2023-02-13T02:49:15.634Z,102199.88
2023-02-13T02:52:18.107Z,102213.66
2023-02-13T02:55:04.159Z,102210.28
2023-02-13T02:57:54.768Z,102210.28
2023-02-13T03:00:43.776Z,102200.97
2023-02-13T03:03:48.970Z,102208.53
2023-02-13T03:06:25.278Z,102199.88
2023-02-13T03:09:19.327Z,102191.22
2023-02-13T03:12:09.895Z,102205.00
2023-02-13T03:14:37.996Z,102199.88
2023-02-13T03:17:25.205Z,102201.63
2023-02-13T03:20:19.977Z,102198.94
2023-02-13T03:22:46.996Z,102188.66
2023-02-13T03:25:34.486Z,102194.63
2023-02-13T03:28:46.809Z,102191.09
2023-02-13T03:31:54.252Z,102181.72
2023-02-13T03:34:26.146Z,102185.03
2023-02-13T03:37:21.308Z,102187.75
2023-02-13T03:40:01.144Z,102184.38
2023-02-13T03:42:33.559Z,102198.00
2023-02-13T03:45:37.906Z,102204.00
2023-02-13T03:48:32.173Z,102204.75
2023-02-13T03:51:03.756Z,102193.47
2023-02-13T03:53:36.354Z,102203.13
2023-02-13T03:56:23.483Z,102206.47
2023-02-13T03:59:12.725Z,102199.63
2023-02-13T04:01:40.532Z,102206.47
2023-02-13T04:04:17.897Z,102211.59
2023-02-13T04:06:50.907Z,102204.75
2023-02-13T04:09:18.767Z,102201.34
2023-02-13T04:11:58.051Z,102203.13
2023-02-13T04:14:40.589Z,102208.25
2023-02-13T04:17:31.414Z,102211.59
2023-02-13T04:19:58.566Z,102208.19
2023-02-13T04:22:25.601Z,102220.13
2023-02-13T04:24:52.957Z,102215.88
2023-02-13T04:27:20.408Z,102215.78
2023-02-13T04:29:47.448Z,102212.44
2023-02-13T04:32:15.160Z,102220.13
2023-02-13T04:34:42.518Z,102209.72
2023-02-13T04:37:09.632Z,102213.38
2023-02-13T04:39:36.806Z,102202.97
2023-02-13T04:42:04.044Z,102204.66
2023-02-13T04:44:31.167Z,102223.63
2023-02-13T04:46:58.449Z,102214.16
2023-02-13T04:49:25.525Z,102215.88
2023-02-13T04:51:52.597Z,102208.91
2023-02-13T04:54:19.674Z,102217.59
2023-02-13T04:56:46.843Z,102218.50
2023-02-13T04:59:14.113Z,102213.38
2023-02-13T05:01:41.217Z,102213.38
2023-02-13T05:04:08.524Z,102206.47
2023-02-13T05:06:35.727Z,102209.88
2023-02-13T05:09:02.811Z,102210.75
2023-02-13T05:11:30.079Z,102215.00
2023-02-13T05:13:57.271Z,102211.47
2023-02-13T05:16:24.506Z,102213.38
2023-02-13T05:18:55.070Z,102217.59
2023-02-13T05:21:41.052Z,102215.00
2023-02-13T05:24:08.741Z,102219.16
2023-02-13T05:26:35.853Z,102189.38
2023-02-13T05:29:22.914Z,102220.13
2023-02-13T05:31:55.202Z,102225.97
2023-02-13T05:34:23.670Z,102218.88
2023-02-13T05:36:51.550Z,102223.19
2023-02-13T05:39:18.812Z,102208.50
2023-02-13T05:41:47.406Z,102225.09
2023-02-13T05:44:14.991Z,102218.22
2023-02-13T05:46:43.745Z,102225.91
2023-02-13T05:49:13.155Z,102220.91
2023-02-13T05:51:40.426Z,102225.09
2023-02-13T05:54:07.659Z,102221.59
2023-02-13T05:56:34.721Z,102221.72
2023-02-13T05:59:01.919Z,102226.84
2023-02-13T06:01:29.024Z,102221.72
2023-02-13T06:03:58.514Z,102214.72
2023-02-13T06:06:26.258Z,102226.84
2023-02-13T06:08:53.541Z,102230.25
2023-02-13T06:11:20.742Z,102230.25
2023-02-13T06:13:47.997Z,102234.63
2023-02-13T06:16:15.181Z,102226.03
2023-02-13T06:18:42.291Z,102232.81
2023-02-13T06:21:09.561Z,102236.38
2023-02-13T06:23:36.893Z,102241.50
2023-02-13T06:26:08.841Z,102234.69
2023-02-13T06:28:36.080Z,102233.91
2023-02-13T06:31:03.563Z,102227.94
2023-02-13T06:33:30.930Z,102232.13
2023-02-13T06:35:58.368Z,102237.38
2023-02-13T06:38:25.641Z,102234.63
2023-02-13T06:40:52.925Z,102230.50
2023-02-13T06:43:20.105Z,102230.50
2023-02-13T06:45:47.470Z,102235.50
2023-02-13T06:48:14.955Z,102241.63
2023-02-13T06:50:42.151Z,102231.16
2023-02-13T06:53:09.332Z,102248.47
2023-02-13T06:55:39.533Z,102249.28
2023-02-13T06:58:06.872Z,102248.09
2023-02-13T07:00:34.163Z,102252.56
2023-02-13T07:03:03.379Z,102259.34
2023-02-13T07:05:30.888Z,102250.75
2023-02-13T07:07:58.397Z,102249.28
2023-02-13T07:10:25.548Z,102246.50
2023-02-13T07:13:04.991Z,102247.34
2023-02-13T07:15:33.850Z,102255.88
2023-02-13T07:18:01.767Z,102257.63
2023-02-13T07:20:29.205Z,102250.75
2023-02-13T07:23:00.842Z,102254.22
2023-02-13T07:25:28.370Z,102251.75
2023-02-13T07:27:55.939Z,102240.34
2023-02-13T07:30:23.004Z,102254.41
2023-02-13T07:32:51.501Z,102254.41
2023-02-13T07:35:18.686Z,102249.09
2023-02-13T07:37:45.849Z,102257.88
2023-02-13T07:40:13.084Z,102261.41
2023-02-13T07:42:40.273Z,102251.03
2023-02-13T07:45:07.819Z,102248.47
2023-02-13T07:47:35.391Z,102256.28
2023-02-13T07:50:06.098Z,102251.16
2023-02-13T07:52:33.745Z,102254.69
2023-02-13T07:55:00.829Z,102252.91
2023-02-13T07:57:27.979Z,102247.63
2023-02-13T07:59:55.242Z,102246.75
2023-02-13T08:02:22.365Z,102252.03
2023-02-13T08:04:49.498Z,102251.28
2023-02-13T08:07:18.349Z,102248.72
2023-02-13T08:10:05.060Z,102255.53
2023-02-13T08:12:35.255Z,102248.81
2023-02-13T08:15:02.790Z,102246.16
2023-02-13T08:17:29.850Z,102245.44
2023-02-13T08:19:57.118Z,102236.78
2023-02-13T08:22:24.411Z,102241.16
2023-02-13T08:24:51.855Z,102232.69
2023-02-13T08:27:18.941Z,102231.06
2023-02-13T08:29:46.095Z,102227.69
2023-02-13T08:32:13.539Z,102228.56
2023-02-13T08:34:40.757Z,102220.78
2023-02-13T08:37:07.818Z,102229.44
2023-02-13T08:39:35.151Z,102230.31
2023-02-13T08:42:02.381Z,102226.09
2023-02-13T08:44:29.511Z,102235.53
2023-02-13T08:46:56.624Z,102229.56
2023-02-13T08:49:23.850Z,102234.72
2023-02-13T08:51:51.155Z,102227.97
2023-02-13T08:54:18.677Z,102233.22
2023-02-13T08:56:45.945Z,102216.69
2023-02-13T08:59:13.250Z,102219.47
2023-02-13T09:01:40.799Z,102225.47
2023-02-13T09:04:09.391Z,102224.75
2023-02-13T09:06:36.678Z,102220.41
2023-02-13T09:09:05.931Z,102212.72
2023-02-13T09:11:33.057Z,102216.38
2023-02-13T09:14:00.310Z,102207.72
2023-02-13T09:16:27.464Z,102204.34
2023-02-13T09:18:54.756Z,102204.53
2023-02-13T09:21:24.082Z,102209.75
2023-02-13T09:23:51.949Z,102203.88
2023-02-13T09:26:20.839Z,102204.75
2023-02-13T09:28:48.577Z,102208.13
2023-02-13T09:31:20.903Z,102207.44
2023-02-13T09:33:50.234Z,102208.28
2023-02-13T09:36:22.645Z,102213.53
2023-02-13T09:38:54.890Z,102215.28
2023-02-13T09:41:43.128Z,102217.66
2023-02-13T09:44:34.326Z,102226.44
2023-02-13T09:47:14.432Z,102222.97
2023-02-13T09:49:47.676Z,102205.00
2023-02-13T09:52:15.390Z,102218.00
2023-02-13T09:54:42.932Z,102216.47
2023-02-13T09:57:26.049Z,102215.56
2023-02-13T10:00:13.538Z,102217.44
2023-02-13T10:02:58.978Z,102209.00
2023-02-13T10:05:57.975Z,102207.31
2023-02-13T10:08:34.402Z,102209.19
2023-02-13T10:11:16.785Z,102210.16
2023-02-13T10:14:01.973Z,102216.16
2023-02-13T10:16:47.430Z,102223.13
2023-02-13T10:19:36.870Z,102219.72
2023-02-13T10:22:29.026Z,102214.72
2023-02-13T10:25:24.490Z,102226.19
2023-02-13T10:27:59.607Z,102220.38
2023-02-13T10:30:26.660Z,102218.06
2023-02-13T10:33:25.896Z,102220.75
2023-02-13T10:36:17.245Z,102214.13
2023-02-13T10:38:57.218Z,102214.25
2023-02-13T10:41:44.693Z,102209.38
2023-02-13T10:44:42.323Z,102197.47
2023-02-13T10:47:35.170Z,102199.38
2023-02-13T10:50:24.167Z,102198.03
2023-02-13T10:53:06.675Z,102204.22
2023-02-13T10:55:50.185Z,102205.41
2023-02-13T10:58:38.581Z,102208.00
2023-02-13T11:01:32.210Z,102205.66
2023-02-13T11:04:07.539Z,102204.13
2023-02-13T11:06:43.650Z,102207.63
2023-02-13T11:09:13.659Z,102191.28
2023-02-13T11:11:43.724Z,102195.59
2023-02-13T11:14:26.860Z,102192.19
2023-02-13T11:17:06.609Z,102192.19
2023-02-13T11:19:36.191Z,102195.59
2023-02-13T11:22:05.308Z,102203.25
2023-02-13T11:24:33.446Z,102192.09
2023-02-13T11:27:14.049Z,102186.72
2023-02-13T11:29:54.882Z,102192.72
2023-02-13T11:32:25.062Z,102190.88
2023-02-13T11:34:52.554Z,102186.34
2023-02-13T11:37:23.409Z,102188.72
2023-02-13T11:39:53.681Z,102179.31
2023-02-13T11:42:24.798Z,102186.25
2023-02-13T11:44:56.263Z,102175.81
2023-02-13T11:47:43.246Z,102193.13
2023-02-13T11:50:30.289Z,102191.22
2023-02-13T11:53:05.805Z,102172.34
2023-02-13T11:55:42.927Z,102173.91
2023-02-13T11:58:16.223Z,102176.50
2023-02-13T12:00:43.933Z,102167.66
2023-02-13T12:03:20.476Z,102185.69
2023-02-13T12:06:01.107Z,102165.97
2023-02-13T12:08:29.644Z,102179.69
2023-02-13T12:11:24.642Z,102180.56
2023-02-13T12:13:53.538Z,102170.16
2023-02-13T12:16:41.557Z,102168.56
2023-02-13T12:19:18.016Z,102163.41
2023-02-13T12:22:04.005Z,102167.66
2023-02-13T12:25:08.175Z,102164.28
2023-02-13T12:28:17.316Z,102165.16
2023-02-13T12:31:39.390Z,102151.38
2023-02-13T12:34:31.664Z,102147.88
2023-02-13T12:37:30.113Z,102148.00
2023-02-13T12:39:57.451Z,102153.03
2023-02-13T12:42:51.061Z,102136.78
2023-02-13T12:46:08.732Z,102116.91
2023-02-13T12:48:49.175Z,102100.63
2023-02-13T12:51:22.605Z,102107.72
2023-02-13T12:54:04.659Z,102109.41
2023-02-13T12:57:02.731Z,102093.13
2023-02-13T12:59:47.905Z,102086.38
2023-02-13T13:02:49.741Z,102098.25
2023-02-13T13:06:11.047Z,102106.91
2023-02-13T13:09:01.465Z,102112.84
2023-02-13T13:11:50.294Z,102114.53
2023-02-13T13:14:21.165Z,102120.53
2023-02-13T13:17:02.747Z,102116.16
2023-02-13T13:20:09.177Z,102113.66
2023-02-13T13:22:54.376Z,102098.16
2023-02-13T13:25:42.216Z,102103.16
2023-02-13T13:28:37.587Z,102116.78
2023-02-13T13:31:05.665Z,102109.84
2023-02-13T13:33:34.165Z,102111.66
2023-02-13T13:36:09.575Z,102104.78
2023-02-13T13:39:00.552Z,102113.44
2023-02-13T13:41:42.449Z,102123.59
2023-02-13T13:44:45.365Z,102120.19
2023-02-13T13:47:21.741Z,102112.38
2023-02-13T13:49:54.023Z,102109.81
2023-02-13T13:52:25.341Z,102119.22
2023-02-13T13:54:54.732Z,102098.59
2023-02-13T13:57:24.353Z,102102.09
2023-02-13T14:00:14.314Z,102099.41
2023-02-13T14:02:59.807Z,102090.88
2023-02-13T14:05:32.505Z,102110.56
2023-02-13T14:08:04.342Z,102125.09
2023-02-13T14:11:03.758Z,102113.88
2023-02-13T14:13:37.501Z,102100.81
2023-02-13T14:16:10.211Z,102119.69
2023-02-13T14:18:40.036Z,102106.81
2023-02-13T14:21:08.877Z,102123.09
2023-02-13T14:23:53.019Z,102118.78
2023-02-13T14:26:33.962Z,102120.44
2023-02-13T14:29:26.867Z,102129.72
2023-02-13T14:32:05.708Z,102133.09
2023-02-13T14:34:37.376Z,102137.41
2023-02-13T14:37:21.189Z,102127.69
2023-02-13T14:40:12.650Z,102137.28
2023-02-13T14:42:40.919Z,102145.00
2023-02-13T14:45:23.408Z,102125.97
2023-02-13T14:47:55.732Z,102126.09
2023-02-13T14:50:26.079Z,102120.94
2023-02-13T14:52:55.841Z,102119.22
2023-02-13T14:55:38.222Z,102117.44
2023-02-13T14:58:22.958Z,102120.59
2023-02-13T15:01:14.344Z,102113.69
2023-02-13T15:03:57.767Z,102105.31
2023-02-13T15:06:33.704Z,102096.53
2023-02-13T15:09:06.887Z,102112.06
2023-02-13T15:12:01.036Z,102103.41
2023-02-13T15:14:53.753Z,102099.97
2023-02-13T15:17:53.309Z,102089.66
2023-02-13T15:20:33.605Z,102104.94
2023-02-13T15:23:01.854Z,102103.16
2023-02-13T15:25:39.561Z,102098.03
2023-02-13T15:28:17.405Z,102106.56
2023-02-13T15:30:57.912Z,102103.03
2023-02-13T15:33:33.886Z,102101.31
2023-02-13T15:36:03.614Z,102096.06
2023-02-13T15:38:34.116Z,102089.25
2023-02-13T15:41:11.841Z,102096.06
2023-02-13T15:43:43.876Z,102101.31
2023-02-13T15:46:25.899Z,102080.66
2023-02-13T15:48:55.244Z,102072.13
2023-02-13T15:51:28.763Z,102071.13
2023-02-13T15:53:58.545Z,102060.13
2023-02-13T15:56:26.770Z,102065.25
2023-02-13T15:58:56.213Z,102061.75
2023-02-13T16:01:24.277Z,102072.63
2023-02-13T16:04:00.966Z,102073.50
2023-02-13T16:06:28.809Z,102100.22
2023-02-13T16:09:00.118Z,102090.75
2023-02-13T16:11:41.303Z,102105.38
2023-02-13T16:14:21.643Z,102099.28
2023-02-13T16:16:48.804Z,102096.66
2023-02-13T16:19:22.916Z,102073.72
2023-02-13T16:21:51.554Z,102094.91
2023-02-13T16:24:20.045Z,102095.66
2023-02-13T16:26:47.798Z,102094.66
2023-02-13T16:29:24.472Z,102098.00
2023-02-13T16:31:53.233Z,102099.03
2023-02-13T16:34:28.951Z,102100.66
2023-02-13T16:36:56.690Z,102101.59
2023-02-13T16:39:32.913Z,102096.41
2023-02-13T16:42:01.618Z,102088.66
2023-02-13T16:44:31.689Z,102097.13
2023-02-13T16:47:05.926Z,102095.31
2023-02-13T16:49:36.456Z,102112.41
2023-02-13T16:52:19.474Z,102106.47
2023-02-13T16:54:51.051Z,102100.41
2023-02-13T16:57:27.993Z,102100.28
2023-02-13T17:00:06.754Z,102107.16
2023-02-13T17:02:35.786Z,102096.56
2023-02-13T17:05:08.689Z,102109.63
2023-02-13T17:07:39.040Z,102110.53
2023-02-13T17:10:22.617Z,102098.38
2023-02-13T17:12:51.922Z,102094.88
2023-02-13T17:15:22.216Z,102092.38
2023-02-13T17:17:50.845Z,102101.66
2023-02-13T17:20:27.053Z,102112.66
2023-02-13T17:22:59.812Z,102110.00
2023-02-13T17:25:37.973Z,102110.00
2023-02-13T17:28:16.940Z,102096.97
2023-02-13T17:30:45.016Z,102104.75
2023-02-13T17:33:27.230Z,102110.75
2023-02-13T17:35:54.881Z,102118.38
2023-02-13T17:38:22.507Z,102110.75
2023-02-13T17:40:49.900Z,102114.03
2023-02-13T17:43:18.880Z,102104.75
2023-02-13T17:45:47.167Z,102103.78
2023-02-13T17:48:14.424Z,102109.03
2023-02-13T17:50:41.815Z,102107.19
2023-02-13T17:53:21.923Z,102108.91
2023-02-13T17:55:49.134Z,102101.91
2023-02-13T17:58:16.366Z,102114.88
2023-02-13T18:00:43.608Z,102114.88
2023-02-13T18:03:12.728Z,102108.13
2023-02-13T18:05:40.503Z,102116.63
2023-02-13T18:08:09.175Z,102121.75
2023-02-13T18:10:37.617Z,102116.47
2023-02-13T18:13:05.473Z,102125.13
2023-02-13T18:15:41.735Z,102128.47
2023-02-13T18:18:09.494Z,102118.22
2023-02-13T18:20:36.981Z,102123.34
2023-02-13T18:23:04.250Z,102127.59
2023-02-13T18:25:31.423Z,102128.47
2023-02-13T18:27:58.786Z,102137.00
2023-02-13T18:30:26.145Z,102137.00
2023-02-13T18:32:55.568Z,102147.25
2023-02-13T18:35:23.611Z,102144.69
2023-02-13T18:37:51.725Z,102158.47
2023-02-13T18:40:19.009Z,102148.88
2023-02-13T18:42:46.468Z,102160.16
2023-02-13T18:45:13.645Z,102157.50
2023-02-13T18:47:40.853Z,102157.50
2023-02-13T18:50:08.841Z,102163.38
2023-02-13T18:52:36.375Z,102149.69
2023-02-13T18:55:06.476Z,102156.50
2023-02-13T18:57:33.844Z,102152.16
2023-02-13T19:00:01.009Z,102163.38
2023-02-13T19:02:28.383Z,102165.88
2023-02-13T19:04:55.612Z,102157.91
2023-02-13T19:07:22.609Z,102171.03
2023-02-13T19:09:50.006Z,102167.50
2023-02-13T19:12:17.236Z,102171.63
2023-02-13T19:14:44.509Z,102175.84
2023-02-13T19:17:11.877Z,102179.25
2023-02-13T19:19:39.502Z,102183.69
2023-02-13T19:22:06.898Z,102189.75
2023-02-13T19:24:33.948Z,102191.22
2023-02-13T19:27:01.193Z,102177.50
2023-02-13T19:29:28.396Z,102198.41
2023-02-13T19:31:55.631Z,102188.16
2023-02-13T19:34:22.809Z,102192.47
2023-02-13T19:36:50.107Z,102194.16
2023-02-13T19:39:17.106Z,102199.13
2023-02-13T19:41:44.914Z,102193.78
2023-02-13T19:44:12.261Z,102206.75
2023-02-13T19:46:39.509Z,102194.69
2023-02-13T19:49:07.257Z,102195.50
2023-02-13T19:51:35.237Z,102193.00
2023-02-13T19:54:08.312Z,102198.13
2023-02-13T19:56:39.964Z,102192.88
2023-02-13T19:59:08.088Z,102191.84
2023-02-13T20:01:35.294Z,102192.56
2023-02-13T20:04:02.565Z,102202.97
2023-02-13T20:06:36.111Z,102200.25
2023-02-13T20:09:07.670Z,102197.44
2023-02-13T20:11:34.903Z,102209.44
2023-02-13T20:14:02.259Z,102205.81
2023-02-13T20:16:34.414Z,102210.09
2023-02-13T20:19:09.837Z,102203.16
2023-02-13T20:21:37.235Z,102198.75
2023-02-13T20:24:05.898Z,102208.00
2023-02-13T20:26:33.635Z,102208.59
2023-02-13T20:29:01.204Z,102203.16
2023-02-13T20:31:30.184Z,102213.28
2023-02-13T20:33:58.503Z,102204.50
2023-02-13T20:36:28.660Z,102219.06
2023-02-13T20:38:59.779Z,102223.16
2023-02-13T20:41:29.424Z,102225.53
2023-02-13T20:44:02.648Z,102234.66
2023-02-13T20:46:31.855Z,102227.75
2023-02-13T20:48:59.549Z,102236.25
2023-02-13T20:51:26.790Z,102232.75
2023-02-13T20:53:54.524Z,102228.94
2023-02-13T20:56:23.640Z,102234.06
2023-02-13T20:58:52.279Z,102237.44
2023-02-13T21:01:22.147Z,102223.66
2023-02-13T21:03:53.895Z,102230.38
2023-02-13T21:06:27.966Z,102231.19
2023-02-13T21:08:55.798Z,102230.25
2023-02-13T21:11:23.814Z,102216.19
2023-02-13T21:13:51.670Z,102214.59
2023-02-13T21:16:25.380Z,102220.44
2023-02-13T21:18:55.037Z,102226.28
2023-02-13T21:21:24.381Z,102182.38
2023-02-13T21:24:08.033Z,102223.19
2023-02-13T21:26:36.248Z,102229.28
2023-02-13T21:29:04.163Z,102232.69
2023-02-13T21:31:34.538Z,102227.53
2023-02-13T21:34:04.906Z,102230.97
2023-02-13T21:36:33.166Z,102230.47
2023-02-13T21:39:00.676Z,102228.00
2023-02-13T21:41:28.176Z,102232.09
2023-02-13T21:43:55.471Z,102227.78
2023-02-13T21:46:28.420Z,102221.72
2023-02-13T21:49:00.723Z,102224.28
2023-02-13T21:51:30.384Z,102221.72
2023-02-13T21:53:58.164Z,102221.53
2023-02-13T21:56:28.680Z,102220.63
2023-02-13T21:58:57.213Z,102227.38
2023-02-13T22:01:29.972Z,102218.63
2023-02-13T22:04:01.057Z,102225.53
2023-02-13T22:06:31.381Z,102227.94
2023-02-13T22:09:04.174Z,102237.41
2023-02-13T22:11:32.658Z,102224.47
2023-02-13T22:14:02.876Z,102222.38
2023-02-13T22:16:31.336Z,102234.34
2023-02-13T22:18:59.111Z,102229.81
2023-02-13T22:21:28.665Z,102230.69
2023-02-13T22:23:56.138Z,102220.88
2023-02-13T22:26:36.202Z,102222.41
2023-02-13T22:29:06.545Z,102240.31
2023-02-13T22:31:34.468Z,102235.03
2023-02-13T22:34:04.328Z,102234.88
2023-02-13T22:36:34.204Z,102231.50
2023-02-13T22:39:01.505Z,102229.75
2023-02-13T22:41:29.047Z,102229.66
2023-02-13T22:43:57.561Z,102233.09
2023-02-13T22:46:30.493Z,102241.56
2023-02-13T22:48:58.459Z,102246.69
2023-02-13T22:51:28.517Z,102231.19
2023-02-13T22:53:57.125Z,102224.00
2023-02-13T22:56:25.422Z,102220.47
2023-02-13T22:58:53.007Z,102218.88
2023-02-13T23:01:22.262Z,102228.94
2023-02-13T23:03:49.707Z,102228.06
2023-02-13T23:06:17.184Z,102233.09
2023-02-13T23:08:45.153Z,102227.75
2023-02-13T23:11:33.830Z,102225.09
2023-02-13T23:14:01.352Z,102228.47
2023-02-13T23:16:49.405Z,102222.47
2023-02-13T23:19:16.686Z,102226.38
2023-02-13T23:21:44.094Z,102228.06
2023-02-13T23:24:11.449Z,102224.63
2023-02-13T23:26:39.077Z,102208.78
2023-02-13T23:29:06.210Z,102222.69
2023-02-13T23:31:33.642Z,102221.72
2023-02-13T23:34:00.812Z,102231.34
2023-02-13T23:36:27.978Z,102231.34
2023-02-13T23:38:55.162Z,102241.72
2023-02-13T23:41:22.363Z,102226.53
2023-02-13T23:43:49.479Z,102221.28
2023-02-13T23:46:16.890Z,102219.69
2023-02-13T23:48:46.193Z,102225.41
2023-02-13T23:51:13.419Z,102217.41
2023-02-13T23:53:40.571Z,102233.78
2023-02-13T23:56:07.852Z,102235.41
2023-02-13T23:58:35.137Z,102243.69
